Time;durP1;ratioP1;P1;durP2;ratioP2;P2;SDS_P1;SDS_P2;PMS_P1;PMS_P2;Temp;Humidity;BMP_temperature;BMP_pressure;BME280_temperature;BME280_humidity;BME280_pressure;Samples;Min_cycle;Max_cycle;Signal;HPM_P1;HPM_P2
2021/04/28 00:00:31;;;;;;;9.88;2.00;;;;;;;;;;4987587;28;20026;-64
2021/04/28 00:02:58;;;;;;;10.57;2.15;;;;;;;;;;4978109;28;20038;-64
2021/04/28 00:05:25;;;;;;;10.63;2.50;;;;;;;;;;4982749;28;20030;-66
2021/04/28 00:07:53;;;;;;;14.52;2.60;;;;;;;;;;4982026;28;20031;-64
2021/04/28 00:10:22;;;;;;;21.75;3.20;;;;;;;;;;4965888;28;20037;-64
2021/04/28 00:12:49;;;;;;;10.23;2.55;;;;;;;;;;4979841;28;20026;-69
2021/04/28 00:15:21;;;;;;;16.55;2.85;;;;;;;;;;4986996;28;20742;-66
2021/04/28 00:17:48;;;;;;;16.80;2.70;;;;;;;;;;4985216;28;20038;-72
2021/04/28 00:20:16;;;;;;;15.82;2.53;;;;;;;;;;4973666;28;20026;-67
2021/04/28 00:22:43;;;;;;;22.45;3.03;;;;;;;;;;4986547;28;20022;-71
2021/04/28 00:25:12;;;;;;;19.10;3.00;;;;;;;;;;4991394;28;20106;-67
2021/04/28 00:27:39;;;;;;;15.60;2.65;;;;;;;;;;4986439;28;20026;-68
2021/04/28 00:30:08;;;;;;;15.88;2.70;;;;;;;;;;4992577;28;20015;-67
2021/04/28 00:32:35;;;;;;;27.05;3.63;;;;;;;;;;4987964;28;20081;-61
2021/04/28 00:35:02;;;;;;;17.13;2.25;;;;;;;;;;4988321;28;20113;-64
2021/04/28 00:37:30;;;;;;;26.38;3.30;;;;;;;;;;4983846;28;20080;-62
2021/04/28 00:39:57;;;;;;;11.90;2.53;;;;;;;;;;4984710;28;20026;-62
2021/04/28 00:42:24;;;;;;;13.63;3.28;;;;;;;;;;4986457;28;20022;-61
2021/04/28 00:44:51;;;;;;;8.48;2.40;;;;;;;;;;4987083;28;20072;-63
2021/04/28 00:47:19;;;;;;;10.38;2.35;;;;;;;;;;4988294;28;20019;-62
2021/04/28 00:49:46;;;;;;;9.80;2.33;;;;;;;;;;4987422;28;20022;-61
2021/04/28 00:52:13;;;;;;;10.68;1.98;;;;;;;;;;4986702;28;20536;-62
2021/04/28 00:54:40;;;;;;;12.63;2.35;;;;;;;;;;4974547;28;20031;-62
2021/04/28 00:57:07;;;;;;;12.18;2.55;;;;;;;;;;4960399;28;20114;-63
2021/04/28 00:59:34;;;;;;;18.08;2.15;;;;;;;;;;4973437;28;20106;-62
2021/04/28 01:02:01;;;;;;;9.90;2.35;;;;;;;;;;4973664;28;20022;-60
2021/04/28 01:04:28;;;;;;;10.27;2.05;;;;;;;;;;4987654;28;20038;-63
2021/04/28 01:06:55;;;;;;;13.07;2.40;;;;;;;;;;4972664;28;20127;-63
2021/04/28 01:09:23;;;;;;;10.45;2.20;;;;;;;;;;4985095;28;20125;-62
2021/04/28 01:11:50;;;;;;;12.30;2.60;;;;;;;;;;4987581;28;20015;-62
2021/04/28 01:14:17;;;;;;;16.60;2.28;;;;;;;;;;4986142;28;20037;-62
2021/04/28 01:16:44;;;;;;;6.18;2.10;;;;;;;;;;4982617;28;20054;-61
2021/04/28 01:19:12;;;;;;;6.00;2.20;;;;;;;;;;4989750;28;20027;-62
2021/04/28 01:21:39;;;;;;;17.20;2.25;;;;;;;;;;4964905;28;20057;-64
2021/04/28 01:24:06;;;;;;;13.35;2.20;;;;;;;;;;4980922;28;20022;-62
2021/04/28 01:26:34;;;;;;;9.52;2.58;;;;;;;;;;4984608;28;20035;-61
2021/04/28 01:29:01;;;;;;;7.32;2.03;;;;;;;;;;4989963;28;20044;-61
2021/04/28 01:31:30;;;;;;;6.00;1.98;;;;;;;;;;4986534;28;20030;-63
2021/04/28 01:34:02;;;;;;;10.70;2.10;;;;;;;;;;4985520;28;20034;-63
2021/04/28 01:36:34;;;;;;;8.25;1.90;;;;;;;;;;4984252;28;20771;-62
2021/04/28 01:39:07;;;;;;;6.50;1.90;;;;;;;;;;4985348;28;20109;-63
2021/04/28 01:41:38;;;;;;;8.75;2.45;;;;;;;;;;4986190;28;20026;-64
2021/04/28 01:44:06;;;;;;;6.93;1.80;;;;;;;;;;4985772;28;20104;-63
2021/04/28 01:46:33;;;;;;;4.20;1.50;;;;;;;;;;4986462;28;20037;-65
2021/04/28 01:49:01;;;;;;;7.20;1.92;;;;;;;;;;4981890;28;20030;-64
2021/04/28 01:51:29;;;;;;;6.43;2.00;;;;;;;;;;4986514;28;20054;-66
2021/04/28 01:53:56;;;;;;;4.70;1.52;;;;;;;;;;4979775;28;20042;-63
2021/04/28 01:56:24;;;;;;;4.35;1.83;;;;;;;;;;4983364;28;20026;-60
2021/04/28 01:58:52;;;;;;;6.88;1.65;;;;;;;;;;4987369;28;20411;-63
2021/04/28 02:01:20;;;;;;;6.32;1.50;;;;;;;;;;4986208;28;20030;-64
2021/04/28 02:03:47;;;;;;;6.93;2.05;;;;;;;;;;4983692;28;20022;-60
2021/04/28 02:06:14;;;;;;;8.98;1.40;;;;;;;;;;4983679;28;20037;-61
2021/04/28 02:08:41;;;;;;;5.15;1.58;;;;;;;;;;4984050;28;20080;-63
2021/04/28 02:11:09;;;;;;;5.28;1.60;;;;;;;;;;4954123;28;20434;-61
2021/04/28 02:13:41;;;;;;;4.78;1.55;;;;;;;;;;4971490;28;20019;-62
2021/04/28 02:16:10;;;;;;;4.82;1.38;;;;;;;;;;4977139;28;20038;-62
2021/04/28 02:18:37;;;;;;;5.95;1.75;;;;;;;;;;4965229;28;20062;-62
2021/04/28 02:21:05;;;;;;;10.95;1.60;;;;;;;;;;4966985;28;20022;-61
2021/04/28 02:23:34;;;;;;;9.93;1.58;;;;;;;;;;4992054;28;20030;-62
2021/04/28 02:26:01;;;;;;;5.55;1.30;;;;;;;;;;4991800;28;20084;-64
2021/04/28 02:28:28;;;;;;;9.35;1.30;;;;;;;;;;4991671;28;20506;-61
2021/04/28 02:30:56;;;;;;;9.27;1.48;;;;;;;;;;4991127;28;20026;-67
2021/04/28 02:33:23;;;;;;;11.10;1.90;;;;;;;;;;4991987;28;20034;-65
2021/04/28 02:35:50;;;;;;;6.40;1.58;;;;;;;;;;4973888;28;20085;-67
2021/04/28 02:38:24;;;;;;;4.25;1.60;;;;;;;;;;4995016;28;20072;-67
2021/04/28 02:40:52;;;;;;;5.20;1.60;;;;;;;;;;4995801;28;20026;-67
2021/04/28 02:43:19;;;;;;;13.25;2.10;;;;;;;;;;4995172;28;20030;-63
2021/04/28 02:45:48;;;;;;;6.25;1.30;;;;;;;;;;4995457;28;20415;-63
2021/04/28 02:48:17;;;;;;;10.45;1.80;;;;;;;;;;4995203;28;20026;-65
2021/04/28 02:50:44;;;;;;;9.32;1.50;;;;;;;;;;4994882;28;20068;-67
2021/04/28 02:53:13;;;;;;;5.88;1.60;;;;;;;;;;4994473;28;20149;-64
2021/04/28 02:55:41;;;;;;;6.15;1.48;;;;;;;;;;4995444;28;20030;-66
2021/04/28 02:58:08;;;;;;;9.45;1.48;;;;;;;;;;4995233;28;20018;-66
2021/04/28 03:00:36;;;;;;;4.97;1.67;;;;;;;;;;4995315;28;20045;-61
2021/04/28 03:03:03;;;;;;;6.32;1.67;;;;;;;;;;4995283;28;20014;-62
2021/04/28 03:05:30;;;;;;;2.70;1.20;;;;;;;;;;4995719;28;20482;-62
2021/04/28 03:07:57;;;;;;;6.53;1.52;;;;;;;;;;4995035;28;20029;-62
2021/04/28 03:10:24;;;;;;;5.13;1.52;;;;;;;;;;4995102;28;20022;-61
2021/04/28 03:12:51;;;;;;;6.38;1.67;;;;;;;;;;4995037;28;20069;-61
2021/04/28 03:15:19;;;;;;;6.38;1.50;;;;;;;;;;4995454;28;20084;-62
2021/04/28 03:17:47;;;;;;;5.55;1.30;;;;;;;;;;4994966;28;20025;-61
2021/04/28 03:20:14;;;;;;;5.07;1.48;;;;;;;;;;4995215;28;20030;-61
2021/04/28 03:22:42;;;;;;;5.13;1.20;;;;;;;;;;4995379;28;20073;-62
2021/04/28 03:25:10;;;;;;;4.63;1.50;;;;;;;;;;4994676;28;20113;-62
2021/04/28 03:27:37;;;;;;;17.25;1.70;;;;;;;;;;4995232;28;20027;-62
2021/04/28 03:30:05;;;;;;;4.00;1.40;;;;;;;;;;4994483;28;20015;-63
2021/04/28 03:32:32;;;;;;;8.38;1.38;;;;;;;;;;4994895;28;20078;-61
2021/04/28 03:34:59;;;;;;;2.40;1.10;;;;;;;;;;4994868;28;20034;-63
2021/04/28 03:37:27;;;;;;;8.70;1.60;;;;;;;;;;4995151;28;20026;-63
2021/04/28 03:39:54;;;;;;;4.45;1.52;;;;;;;;;;4994378;28;20076;-63
2021/04/28 03:42:22;;;;;;;5.65;1.20;;;;;;;;;;4994929;28;20022;-63
2021/04/28 03:44:51;;;;;;;4.65;1.67;;;;;;;;;;4994531;28;20026;-63
2021/04/28 03:47:21;;;;;;;6.53;1.15;;;;;;;;;;4994926;28;20026;-65
2021/04/28 03:49:48;;;;;;;3.63;1.10;;;;;;;;;;4992969;28;20040;-66
2021/04/28 03:52:15;;;;;;;6.50;1.55;;;;;;;;;;4994945;28;20026;-64
2021/04/28 03:54:42;;;;;;;4.20;1.20;;;;;;;;;;4994118;28;20042;-65
2021/04/28 03:57:10;;;;;;;5.97;1.30;;;;;;;;;;4994715;28;20583;-65
2021/04/28 03:59:37;;;;;;;4.75;1.05;;;;;;;;;;4994338;28;20036;-63
2021/04/28 04:02:04;;;;;;;3.00;1.13;;;;;;;;;;4994313;28;20093;-62
2021/04/28 04:04:31;;;;;;;3.50;1.25;;;;;;;;;;4994503;28;20026;-62
2021/04/28 04:06:58;;;;;;;4.30;1.02;;;;;;;;;;4994376;28;20022;-63
2021/04/28 04:09:25;;;;;;;4.40;1.20;;;;;;;;;;4994351;28;20494;-65
2021/04/28 04:11:52;;;;;;;1.67;1.00;;;;;;;;;;4993628;28;20069;-67
2021/04/28 04:14:19;;;;;;;4.03;1.10;;;;;;;;;;4994376;28;20419;-66
2021/04/28 04:16:47;;;;;;;4.03;1.13;;;;;;;;;;4994012;28;20019;-65
2021/04/28 04:19:14;;;;;;;4.95;1.20;;;;;;;;;;4994328;28;20018;-67
2021/04/28 04:21:41;;;;;;;2.50;0.98;;;;;;;;;;4993796;28;20089;-62
2021/04/28 04:24:09;;;;;;;2.08;1.00;;;;;;;;;;4994190;28;20422;-66
2021/04/28 04:26:36;;;;;;;3.25;1.17;;;;;;;;;;4993649;28;20037;-66
2021/04/28 04:29:03;;;;;;;2.78;1.17;;;;;;;;;;4994308;28;20418;-65
2021/04/28 04:31:31;;;;;;;2.55;1.08;;;;;;;;;;4975970;28;20379;-64
2021/04/28 04:33:58;;;;;;;2.95;0.88;;;;;;;;;;4993928;28;20427;-66
2021/04/28 04:36:26;;;;;;;3.70;1.17;;;;;;;;;;4993596;28;20030;-67
2021/04/28 04:38:53;;;;;;;4.20;1.08;;;;;;;;;;4993904;28;20090;-62
2021/04/28 04:41:20;;;;;;;6.72;1.23;;;;;;;;;;4993190;28;20815;-63
2021/04/28 04:43:47;;;;;;;2.65;1.23;;;;;;;;;;4993881;28;20026;-65
2021/04/28 04:46:14;;;;;;;3.85;1.30;;;;;;;;;;4993613;28;20529;-66
2021/04/28 04:48:41;;;;;;;2.08;1.08;;;;;;;;;;4993550;28;20022;-63
2021/04/28 04:51:08;;;;;;;2.90;1.00;;;;;;;;;;4993214;28;20061;-64
2021/04/28 04:53:36;;;;;;;2.47;1.08;;;;;;;;;;4993072;28;20409;-65
2021/04/28 04:56:03;;;;;;;2.17;1.20;;;;;;;;;;4993533;28;20062;-67
2021/04/28 04:58:30;;;;;;;3.72;1.25;;;;;;;;;;4992854;28;20037;-65
2021/04/28 05:00:57;;;;;;;2.47;0.93;;;;;;;;;;4975365;28;20023;-66
2021/04/28 05:03:24;;;;;;;7.10;1.25;;;;;;;;;;4993079;28;20019;-66
2021/04/28 05:05:51;;;;;;;3.28;1.00;;;;;;;;;;4993282;28;20113;-66
2021/04/28 05:08:18;;;;;;;3.80;1.17;;;;;;;;;;4992718;28;20036;-66
2021/04/28 05:10:46;;;;;;;3.05;0.88;;;;;;;;;;4993341;28;20026;-66
2021/04/28 05:13:13;;;;;;;1.95;0.95;;;;;;;;;;4992492;28;20415;-66
2021/04/28 05:15:40;;;;;;;3.40;1.02;;;;;;;;;;4993328;28;20490;-64
2021/04/28 05:18:07;;;;;;;3.78;0.85;;;;;;;;;;4975286;28;20105;-61
2021/04/28 05:20:34;;;;;;;3.92;1.23;;;;;;;;;;4992944;28;20037;-67
2021/04/28 05:23:02;;;;;;;2.92;1.25;;;;;;;;;;4992513;28;20026;-67
2021/04/28 05:25:29;;;;;;;2.90;1.05;;;;;;;;;;4993082;28;20034;-67
2021/04/28 05:27:56;;;;;;;3.90;1.17;;;;;;;;;;4992814;28;20027;-63
2021/04/28 05:30:23;;;;;;;2.65;0.90;;;;;;;;;;4992751;28;20457;-61
2021/04/28 05:32:50;;;;;;;1.42;0.90;;;;;;;;;;4992752;28;20014;-63
2021/04/28 05:35:17;;;;;;;1.70;0.90;;;;;;;;;;4975241;28;20104;-62
2021/04/28 05:37:44;;;;;;;3.35;1.10;;;;;;;;;;4992841;28;20390;-61
2021/04/28 05:40:12;;;;;;;1.70;0.90;;;;;;;;;;4992488;28;20085;-62
2021/04/28 05:42:39;;;;;;;2.22;1.00;;;;;;;;;;4992668;28;20084;-62
2021/04/28 05:45:07;;;;;;;3.08;1.10;;;;;;;;;;4992398;28;20030;-62
2021/04/28 05:47:34;;;;;;;2.17;1.20;;;;;;;;;;4975277;28;20030;-62
2021/04/28 05:50:01;;;;;;;6.72;1.10;;;;;;;;;;4991931;28;20081;-63
2021/04/28 05:52:28;;;;;;;3.88;1.10;;;;;;;;;;4992411;28;20205;-63
2021/04/28 05:54:55;;;;;;;2.08;1.00;;;;;;;;;;4992051;28;20045;-62
2021/04/28 05:57:23;;;;;;;2.90;0.90;;;;;;;;;;4992661;28;20025;-64
2021/04/28 05:59:50;;;;;;;2.33;1.00;;;;;;;;;;4992140;28;20422;-63
2021/04/28 06:02:17;;;;;;;3.47;1.10;;;;;;;;;;4992332;28;20080;-61
2021/04/28 06:04:44;;;;;;;2.40;0.95;;;;;;;;;;4991977;28;20019;-62
2021/04/28 06:07:11;;;;;;;1.70;0.85;;;;;;;;;;4992494;28;20030;-61
2021/04/28 06:09:38;;;;;;;5.07;1.00;;;;;;;;;;4974428;28;20042;-64
2021/04/28 06:12:07;;;;;;;3.30;0.90;;;;;;;;;;4991956;28;20073;-62
2021/04/28 06:14:34;;;;;;;1.65;0.90;;;;;;;;;;4992382;28;20069;-66
2021/04/28 06:17:05;;;;;;;2.17;0.90;;;;;;;;;;4991991;28;20018;-65
2021/04/28 06:19:33;;;;;;;1.92;1.00;;;;;;;;;;4992264;28;20026;-67
2021/04/28 06:22:00;;;;;;;1.52;0.75;;;;;;;;;;4991661;28;20081;-65
2021/04/28 06:24:27;;;;;;;1.55;0.93;;;;;;;;;;4992016;28;20386;-67
2021/04/28 06:26:54;;;;;;;1.65;0.70;;;;;;;;;;4991773;28;20034;-67
2021/04/28 06:29:21;;;;;;;1.23;0.80;;;;;;;;;;4974915;28;20105;-66
2021/04/28 06:31:48;;;;;;;2.50;1.13;;;;;;;;;;4992073;28;20026;-66
2021/04/28 06:34:15;;;;;;;2.47;0.90;;;;;;;;;;4991940;28;20071;-67
2021/04/28 06:36:42;;;;;;;1.10;0.88;;;;;;;;;;4991628;28;20033;-67
2021/04/28 06:39:11;;;;;;;1.75;0.80;;;;;;;;;;4992344;28;20057;-67
2021/04/28 06:41:39;;;;;;;3.50;1.20;;;;;;;;;;4991519;28;20032;-66
2021/04/28 06:44:06;;;;;;;1.13;0.90;;;;;;;;;;4991930;28;20022;-66
2021/04/28 06:46:33;;;;;;;3.85;0.98;;;;;;;;;;4992249;28;20478;-67
2021/04/28 06:49:03;;;;;;;1.50;0.93;;;;;;;;;;4991484;28;20038;-64
2021/04/28 06:51:30;;;;;;;2.67;1.20;;;;;;;;;;4991976;28;20069;-65
2021/04/28 06:54:01;;;;;;;1.98;1.10;;;;;;;;;;4991527;28;20026;-65
2021/04/28 06:56:29;;;;;;;2.15;0.80;;;;;;;;;;4991973;28;20030;-67
2021/04/28 06:58:56;;;;;;;2.53;1.02;;;;;;;;;;4973905;28;20031;-67
2021/04/28 07:01:23;;;;;;;1.30;0.70;;;;;;;;;;4991923;28;20031;-67
2021/04/28 07:03:50;;;;;;;0.80;0.73;;;;;;;;;;4991377;28;20018;-68
2021/04/28 07:06:17;;;;;;;2.83;1.08;;;;;;;;;;4991581;28;20425;-64
2021/04/28 07:08:44;;;;;;;1.95;0.90;;;;;;;;;;4991301;28;20026;-64
2021/04/28 07:11:11;;;;;;;1.33;0.93;;;;;;;;;;4991843;28;20101;-67
2021/04/28 07:13:38;;;;;;;1.63;0.90;;;;;;;;;;4991214;28;20022;-67
2021/04/28 07:16:05;;;;;;;1.55;1.00;;;;;;;;;;4991721;28;20118;-66
2021/04/28 07:18:32;;;;;;;1.15;0.80;;;;;;;;;;4991206;28;20019;-66
2021/04/28 07:20:59;;;;;;;1.73;0.95;;;;;;;;;;4991853;28;20061;-66
2021/04/28 07:23:26;;;;;;;2.40;0.90;;;;;;;;;;4991757;28;20077;-67
2021/04/28 07:25:53;;;;;;;2.15;1.00;;;;;;;;;;4995359;28;20018;-66
2021/04/28 07:28:20;;;;;;;0.90;0.80;;;;;;;;;;4977922;28;20028;-62
2021/04/28 07:30:47;;;;;;;2.22;1.00;;;;;;;;;;4994883;28;20018;-65
2021/04/28 07:33:14;;;;;;;2.00;1.20;;;;;;;;;;4995290;28;20533;-67
2021/04/28 07:35:42;;;;;;;2.63;0.95;;;;;;;;;;4994035;28;20129;-66
2021/04/28 07:38:09;;;;;;;3.13;0.90;;;;;;;;;;4977746;28;20351;-66
2021/04/28 07:40:36;;;;;;;1.50;0.90;;;;;;;;;;4994648;28;20026;-67
2021/04/28 07:43:03;;;;;;;1.73;0.93;;;;;;;;;;4977822;28;20359;-65
2021/04/28 07:45:34;;;;;;;3.67;0.95;;;;;;;;;;4994264;28;20105;-65
2021/04/28 07:48:07;;;;;;;1.27;0.80;;;;;;;;;;4994802;28;20156;-66
2021/04/28 07:50:34;;;;;;;2.50;0.93;;;;;;;;;;4994095;28;20041;-65
2021/04/28 07:53:01;;;;;;;1.67;0.80;;;;;;;;;;4994827;28;20030;-67
2021/04/28 07:55:29;;;;;;;3.58;1.20;;;;;;;;;;4993983;28;20030;-67
2021/04/28 07:57:57;;;;;;;1.92;1.00;;;;;;;;;;4995123;28;20058;-67
2021/04/28 08:00:27;;;;;;;0.90;0.70;;;;;;;;;;4994085;28;20018;-61
2021/04/28 08:02:54;;;;;;;1.63;0.88;;;;;;;;;;4994563;28;20026;-63
2021/04/28 08:05:21;;;;;;;2.00;0.90;;;;;;;;;;4994004;28;20027;-61
2021/04/28 08:07:48;;;;;;;1.40;0.82;;;;;;;;;;4994905;28;20370;-62
2021/04/28 08:10:15;;;;;;;1.38;0.70;;;;;;;;;;4993948;28;20398;-61
2021/04/28 08:12:42;;;;;;;3.20;1.10;;;;;;;;;;4994534;28;20105;-62
2021/04/28 08:15:09;;;;;;;1.95;0.88;;;;;;;;;;4993959;28;20062;-62
2021/04/28 08:17:37;;;;;;;1.55;0.93;;;;;;;;;;4993779;28;20022;-61
2021/04/28 08:20:05;;;;;;;2.88;1.05;;;;;;;;;;4994262;28;20479;-62
2021/04/28 08:22:33;;;;;;;1.50;0.90;;;;;;;;;;4993763;28;20026;-62
2021/04/28 08:25:01;;;;;;;2.20;0.80;;;;;;;;;;4993832;28;20022;-62
2021/04/28 08:27:28;;;;;;;1.40;0.93;;;;;;;;;;4993991;28;20059;-60
2021/04/28 08:29:56;;;;;;;2.58;1.00;;;;;;;;;;4976333;28;20014;-61
2021/04/28 08:32:24;;;;;;;1.63;0.90;;;;;;;;;;4993473;28;20058;-61
2021/04/28 08:34:51;;;;;;;1.38;0.77;;;;;;;;;;4993782;28;20034;-62
2021/04/28 08:37:18;;;;;;;1.33;0.82;;;;;;;;;;4993666;28;20496;-64
2021/04/28 08:39:46;;;;;;;2.70;1.10;;;;;;;;;;4993784;28;20031;-61
2021/04/28 08:42:13;;;;;;;1.45;0.90;;;;;;;;;;4993363;28;20429;-63
2021/04/28 08:44:40;;;;;;;2.13;0.88;;;;;;;;;;4993692;28;20050;-62
2021/04/28 08:47:10;;;;;;;2.67;1.10;;;;;;;;;;4993386;28;20056;-61
2021/04/28 08:49:37;;;;;;;1.20;0.90;;;;;;;;;;4993743;28;20038;-61
2021/04/28 08:52:05;;;;;;;3.95;0.77;;;;;;;;;;4993373;28;20045;-65
2021/04/28 08:54:32;;;;;;;1.60;0.90;;;;;;;;;;4993498;28;20030;-61
2021/04/28 08:56:59;;;;;;;1.10;0.70;;;;;;;;;;4993161;28;20038;-63
2021/04/28 08:59:26;;;;;;;1.25;0.63;;;;;;;;;;4993174;28;20033;-62
2021/04/28 09:01:54;;;;;;;1.98;0.93;;;;;;;;;;4993599;28;20018;-63
2021/04/28 09:04:23;;;;;;;1.75;0.70;;;;;;;;;;4993048;28;20490;-61
2021/04/28 09:06:51;;;;;;;0.82;0.70;;;;;;;;;;4993409;28;20022;-61
2021/04/28 09:09:20;;;;;;;1.48;1.10;;;;;;;;;;4992962;28;20076;-63
2021/04/28 09:11:49;;;;;;;1.10;0.80;;;;;;;;;;4993342;28;20045;-61
2021/04/28 09:14:16;;;;;;;3.30;1.27;;;;;;;;;;4992639;28;20030;-63
2021/04/28 09:16:45;;;;;;;1.90;0.98;;;;;;;;;;4993195;28;20023;-63
2021/04/28 09:19:23;;;;;;;1.77;1.00;;;;;;;;;;4992850;28;20014;-62
2021/04/28 09:21:51;;;;;;;1.48;0.90;;;;;;;;;;4992785;28;20026;-65
2021/04/28 09:24:22;;;;;;;1.90;0.90;;;;;;;;;;4992709;28;20033;-64
2021/04/28 09:26:49;;;;;;;1.70;0.88;;;;;;;;;;4992680;28;20029;-65
2021/04/28 09:29:17;;;;;;;2.05;0.90;;;;;;;;;;4992607;28;20045;-64
2021/04/28 09:31:55;;;;;;;1.40;0.73;;;;;;;;;;4992980;28;20042;-63
2021/04/28 09:34:26;;;;;;;1.60;0.93;;;;;;;;;;4992493;28;20034;-61
2021/04/28 09:37:00;;;;;;;1.70;0.95;;;;;;;;;;4992789;28;20023;-64
2021/04/28 09:39:27;;;;;;;4.28;0.82;;;;;;;;;;4974612;28;20105;-60
2021/04/28 09:41:57;;;;;;;1.73;0.90;;;;;;;;;;4992122;28;20116;-63
2021/04/28 09:44:36;;;;;;;2.90;0.93;;;;;;;;;;4991754;28;20030;-62
2021/04/28 09:47:22;;;;;;;3.90;1.00;;;;;;;;;;4991589;28;20093;-66
2021/04/28 09:49:52;;;;;;;2.20;0.90;;;;;;;;;;4989086;28;20019;-64
2021/04/28 09:52:22;;;;;;;1.42;0.82;;;;;;;;;;4991938;28;20036;-63
2021/04/28 09:54:50;;;;;;;1.60;0.85;;;;;;;;;;4989192;28;20040;-64
2021/04/28 09:57:19;;;;;;;6.70;1.08;;;;;;;;;;4992057;28;20481;-64
2021/04/28 09:59:46;;;;;;;2.63;0.80;;;;;;;;;;4992332;28;20027;-65
2021/04/28 10:02:13;;;;;;;1.58;0.85;;;;;;;;;;4990563;28;20022;-64
2021/04/28 10:04:41;;;;;;;4.75;1.30;;;;;;;;;;4991112;28;20138;-65
2021/04/28 10:07:08;;;;;;;1.70;0.80;;;;;;;;;;4974367;28;20417;-65
2021/04/28 10:09:40;;;;;;;2.97;0.95;;;;;;;;;;4974752;28;20483;-64
2021/04/28 10:12:07;;;;;;;2.17;0.98;;;;;;;;;;4992142;28;20015;-64
2021/04/28 10:14:35;;;;;;;0.95;0.70;;;;;;;;;;4974687;28;20034;-65
2021/04/28 10:17:03;;;;;;;1.02;0.80;;;;;;;;;;4992383;28;20022;-64
2021/04/28 10:19:31;;;;;;;3.55;1.40;;;;;;;;;;4992627;28;20046;-64
2021/04/28 10:22:00;;;;;;;1.70;0.95;;;;;;;;;;4992913;28;20037;-64
2021/04/28 10:24:28;;;;;;;1.08;0.80;;;;;;;;;;4992580;28;20018;-64
2021/04/28 10:26:55;;;;;;;1.48;1.00;;;;;;;;;;4992495;28;20479;-65
2021/04/28 10:29:22;;;;;;;1.70;0.88;;;;;;;;;;4992694;28;20032;-64
2021/04/28 10:31:50;;;;;;;2.22;1.00;;;;;;;;;;4992403;28;20093;-64
2021/04/28 10:34:24;;;;;;;1.15;0.90;;;;;;;;;;4992476;28;20474;-64
2021/04/28 10:36:53;;;;;;;3.30;1.10;;;;;;;;;;4992555;28;20085;-64
2021/04/28 10:39:21;;;;;;;2.55;1.10;;;;;;;;;;4992648;28;20053;-64
2021/04/28 10:41:49;;;;;;;1.30;0.90;;;;;;;;;;4988922;28;20528;-64
2021/04/28 10:44:31;;;;;;;1.52;1.08;;;;;;;;;;4992217;28;20034;-64
2021/04/28 10:47:16;;;;;;;4.10;1.20;;;;;;;;;;4990036;28;20524;-65
2021/04/28 10:50:01;;;;;;;6.38;1.00;;;;;;;;;;4991045;28;20040;-61
2021/04/28 10:52:30;;;;;;;2.03;0.85;;;;;;;;;;4991759;28;20038;-63
2021/04/28 10:54:57;;;;;;;4.05;1.25;;;;;;;;;;4987993;28;20042;-65
2021/04/28 10:57:38;;;;;;;2.60;1.02;;;;;;;;;;4991587;28;20348;-62
2021/04/28 11:00:20;;;;;;;5.13;1.10;;;;;;;;;;4991887;28;20483;-65
2021/04/28 11:02:47;;;;;;;6.60;1.30;;;;;;;;;;4994798;28;20080;-66
2021/04/28 11:05:28;;;;;;;3.20;1.38;;;;;;;;;;4994367;28;20035;-65
2021/04/28 11:07:59;;;;;;;3.50;1.00;;;;;;;;;;4994409;28;20026;-64
2021/04/28 11:10:33;;;;;;;3.58;1.02;;;;;;;;;;4995619;28;20023;-62
2021/04/28 11:13:07;;;;;;;2.75;1.25;;;;;;;;;;4995533;28;20475;-63
2021/04/28 11:15:49;;;;;;;3.08;1.20;;;;;;;;;;4995150;28;20041;-62
2021/04/28 11:18:15;;;;;;;;;;;;;;;;;;4993428;28;20026;-66
2021/04/28 11:20:43;;;;;;;1.23;0.90;;;;;;;;;;4995124;28;20390;-63
2021/04/28 11:23:22;;;;;;;1.55;0.85;;;;;;;;;;4995281;28;20085;-65
2021/04/28 11:26:09;;;;;;;4.95;1.10;;;;;;;;;;4994965;28;20054;-66
2021/04/28 11:28:37;;;;;;;8.35;1.27;;;;;;;;;;4977016;28;20026;-66
2021/04/28 11:31:04;;;;;;;4.93;1.10;;;;;;;;;;4993228;28;20504;-62
2021/04/28 11:33:34;;;;;;;7.88;1.17;;;;;;;;;;4995179;28;20053;-61
2021/04/28 11:36:06;;;;;;;5.03;1.00;;;;;;;;;;4995213;28;20026;-63
2021/04/28 11:38:34;;;;;;;2.50;1.42;;;;;;;;;;4994775;28;20458;-61
2021/04/28 11:41:10;;;;;;;5.68;1.13;;;;;;;;;;4994126;28;20030;-61
2021/04/28 11:43:41;;;;;;;2.67;0.90;;;;;;;;;;4993496;28;20049;-61
2021/04/28 11:46:12;;;;;;;3.00;1.08;;;;;;;;;;4994910;28;20058;-60
2021/04/28 11:48:40;;;;;;;5.30;0.98;;;;;;;;;;4994716;28;20026;-66
2021/04/28 11:51:11;;;;;;;4.47;1.20;;;;;;;;;;4994711;28;20098;-63
2021/04/28 11:53:57;;;;;;;4.97;1.30;;;;;;;;;;4992219;28;20034;-64
2021/04/28 11:56:36;;;;;;;2.35;0.88;;;;;;;;;;4977072;28;21137;-64
2021/04/28 11:59:05;;;;;;;2.58;1.05;;;;;;;;;;4994906;28;20041;-65
2021/04/28 12:01:34;;;;;;;3.80;1.13;;;;;;;;;;4995011;28;20106;-68
2021/04/28 12:04:01;;;;;;;3.38;1.10;;;;;;;;;;4994396;28;20513;-64
2021/04/28 12:06:29;;;;;;;4.40;1.10;;;;;;;;;;4992190;28;20037;-59
2021/04/28 12:09:23;;;;;;;5.65;1.20;;;;;;;;;;4994183;28;20105;-66
2021/04/28 12:12:06;;;;;;;4.10;1.25;;;;;;;;;;4965251;28;20038;-63
2021/04/28 12:14:33;;;;;;;4.00;1.55;;;;;;;;;;4994252;28;20047;-62
2021/04/28 12:17:00;;;;;;;3.03;1.10;;;;;;;;;;4993144;28;20033;-67
2021/04/28 12:19:28;;;;;;;2.40;0.95;;;;;;;;;;4993531;28;20085;-64
2021/04/28 12:22:03;;;;;;;3.15;1.08;;;;;;;;;;4994703;28;20050;-61
2021/04/28 12:24:34;;;;;;;5.35;1.00;;;;;;;;;;4993910;28;20080;-70
2021/04/28 12:27:04;;;;;;;2.40;1.13;;;;;;;;;;4994403;28;20018;-69
2021/04/28 12:29:31;;;;;;;2.45;1.00;;;;;;;;;;4991761;28;20034;-67
2021/04/28 12:31:58;;;;;;;7.93;1.00;;;;;;;;;;4976434;28;20022;-64
2021/04/28 12:34:26;;;;;;;3.78;1.30;;;;;;;;;;4976328;28;20042;-68
2021/04/28 12:36:53;;;;;;;5.32;1.30;;;;;;;;;;4993403;28;20074;-63
2021/04/28 12:39:29;;;;;;;6.18;1.20;;;;;;;;;;4993174;28;20022;-61
2021/04/28 12:41:57;;;;;;;4.22;0.90;;;;;;;;;;4990622;28;20022;-63
2021/04/28 12:44:24;;;;;;;2.65;1.10;;;;;;;;;;4992752;28;20026;-66
2021/04/28 12:46:51;;;;;;;6.60;1.45;;;;;;;;;;4990593;28;20026;-64
2021/04/28 12:49:19;;;;;;;3.42;1.20;;;;;;;;;;4992529;28;20133;-64
2021/04/28 12:51:50;;;;;;;5.20;1.20;;;;;;;;;;4992924;28;20070;-65
2021/04/28 12:54:33;;;;;;;4.75;1.33;;;;;;;;;;4990224;28;20031;-63
2021/04/28 12:57:03;;;;;;;7.82;1.35;;;;;;;;;;4990770;28;20034;-66
2021/04/28 12:59:30;;;;;;;2.60;1.13;;;;;;;;;;4992976;28;20031;-64
2021/04/28 13:02:02;;;;;;;4.82;1.30;;;;;;;;;;4993233;28;20498;-67
2021/04/28 13:04:29;;;;;;;2.88;1.25;;;;;;;;;;4992482;28;20038;-62
2021/04/28 13:07:13;;;;;;;4.00;1.40;;;;;;;;;;4991852;28;20022;-63
2021/04/28 13:09:41;;;;;;;3.85;1.02;;;;;;;;;;4975079;28;20542;-63
2021/04/28 13:12:09;;;;;;;3.80;1.25;;;;;;;;;;4972404;28;20027;-60
2021/04/28 13:14:49;;;;;;;4.07;1.35;;;;;;;;;;4986724;28;20038;-59
2021/04/28 13:17:16;;;;;;;3.33;1.30;;;;;;;;;;4989289;28;20030;-60
2021/04/28 13:19:43;;;;;;;5.40;0.95;;;;;;;;;;4973908;28;20038;-59
2021/04/28 13:22:17;;;;;;;3.78;1.00;;;;;;;;;;4990968;28;20123;-60
2021/04/28 13:24:48;;;;;;;3.28;0.90;;;;;;;;;;4975860;28;20057;-61
2021/04/28 13:27:17;;;;;;;5.10;1.50;;;;;;;;;;4977932;28;20483;-66
2021/04/28 13:30:02;;;;;;;2.05;1.23;;;;;;;;;;4987101;28;20018;-66
2021/04/28 13:32:45;;;;;;;4.78;1.35;;;;;;;;;;4983420;28;20054;-64
2021/04/28 13:35:18;;;;;;;10.80;1.70;;;;;;;;;;4975427;28;20050;-61
2021/04/28 13:37:46;;;;;;;17.58;2.65;;;;;;;;;;4986407;28;20018;-63
2021/04/28 13:40:23;;;;;;;5.80;1.23;;;;;;;;;;4991455;28;20029;-59
2021/04/28 13:43:00;;;;;;;4.38;1.35;;;;;;;;;;4973019;28;20030;-61
2021/04/28 13:45:27;;;;;;;6.03;1.50;;;;;;;;;;4992289;28;20394;-61
2021/04/28 13:47:54;;;;;;;5.47;1.15;;;;;;;;;;4992235;28;20049;-64
2021/04/28 13:50:22;;;;;;;4.63;1.30;;;;;;;;;;4992053;28;20089;-65
2021/04/28 13:52:50;;;;;;;2.72;1.08;;;;;;;;;;4990998;28;20437;-64
2021/04/28 13:55:17;;;;;;;4.30;1.40;;;;;;;;;;4990664;28;20035;-62
2021/04/28 13:57:44;;;;;;;5.32;1.50;;;;;;;;;;4974691;28;20026;-64
2021/04/28 14:00:17;;;;;;;3.03;1.65;;;;;;;;;;4992286;28;20064;-62
2021/04/28 14:02:44;;;;;;;6.35;1.20;;;;;;;;;;4991633;28;20018;-61
2021/04/28 14:05:13;;;;;;;3.38;1.27;;;;;;;;;;4978381;28;20379;-61
2021/04/28 14:07:40;;;;;;;3.88;1.27;;;;;;;;;;4990049;28;20014;-65
2021/04/28 14:10:08;;;;;;;2.95;1.13;;;;;;;;;;4986698;28;20022;-62
2021/04/28 14:12:35;;;;;;;4.22;1.30;;;;;;;;;;4991711;28;20029;-62
2021/04/28 14:15:02;;;;;;;2.20;0.90;;;;;;;;;;4984199;28;20030;-60
2021/04/28 14:17:29;;;;;;;4.40;1.48;;;;;;;;;;4989189;28;20030;-61
2021/04/28 14:19:56;;;;;;;6.57;1.17;;;;;;;;;;4973998;28;20026;-66
2021/04/28 14:22:23;;;;;;;5.72;1.08;;;;;;;;;;4991669;28;20030;-60
2021/04/28 14:24:51;;;;;;;6.93;1.60;;;;;;;;;;4974429;28;20014;-62
2021/04/28 14:27:18;;;;;;;2.80;0.93;;;;;;;;;;4989167;28;20037;-60
2021/04/28 14:29:45;;;;;;;3.03;1.15;;;;;;;;;;4989327;28;20028;-62
2021/04/28 14:32:12;;;;;;;3.22;1.20;;;;;;;;;;4992203;28;20026;-62
2021/04/28 14:34:39;;;;;;;3.67;1.00;;;;;;;;;;4995335;28;20688;-62
2021/04/28 14:37:07;;;;;;;7.97;1.75;;;;;;;;;;4995449;28;20046;-60
2021/04/28 14:39:35;;;;;;;17.08;1.77;;;;;;;;;;4994513;28;20109;-62
2021/04/28 14:42:02;;;;;;;3.45;0.90;;;;;;;;;;4972136;28;20026;-62
2021/04/28 14:44:29;;;;;;;6.25;1.13;;;;;;;;;;4964576;28;20031;-61
2021/04/28 14:46:56;;;;;;;4.15;1.02;;;;;;;;;;4991079;28;20056;-60
2021/04/28 14:49:24;;;;;;;2.17;1.10;;;;;;;;;;4995411;28;20505;-60
2021/04/28 14:51:54;;;;;;;2.25;1.02;;;;;;;;;;4976959;28;20042;-64